Teaneck, New Jersey
Current Conditions -  °F | °C
As of 7:22 AM on Monday 24 Nov 2014 (Local Time) from KTEB Reporting Station
Light Rain Light Rain  
Wind Chill: 63°   Ceiling: 1100
Heat Index: 63°   Visibility: 5mi
Dew Point: 57°   Wind: 17mph
Humidity: 82%   Direction: 180°S
Pressure: 29.67"   Gusts: 25mph
Location:  40.88°N, 74.01°W
Report Text: KTEB 241222Z 18015G22KT 5SM -RA BR OVC011 17/14 A2967 RMK AO2 PK WND 17026/1208 P0001
Loading
Personal Weather Stations






























Interactive Weather Map New forecast layout! Learn more

10-Day Weather Forecast

Advertisements
Track Severe Weather on mobile